Time;durP1;ratioP1;P1;durP2;ratioP2;P2;SDS_P1;SDS_P2;PMS_P1;PMS_P2;Temp;Humidity;BMP_temperature;BMP_pressure;BME280_temperature;BME280_humidity;BME280_pressure;Samples;Min_cycle;Max_cycle;Signal;HPM_P1;HPM_P2
2023/05/04 00:01:02;;;;;;;12.43;7.18;;;13.00;84.70;;;;;;6228621;22;20077;-92
2023/05/04 00:03:28;;;;;;;11.35;6.97;;;13.00;84.50;;;;;;6203448;22;20015;-91
2023/05/04 00:05:54;;;;;;;12.48;7.50;;;12.90;84.70;;;;;;6202881;22;20324;-91
2023/05/04 00:08:20;;;;;;;12.05;7.13;;;12.90;84.50;;;;;;6202768;22;20004;-92
2023/05/04 00:10:45;;;;;;;13.60;7.93;;;12.80;85.30;;;;;;6202768;22;20011;-89
2023/05/04 00:13:11;;;;;;;9.75;7.20;;;12.80;85.00;;;;;;6228157;22;20442;-89
2023/05/04 00:15:37;;;;;;;11.68;7.10;;;12.70;85.10;;;;;;6203304;22;20004;-92
2023/05/04 00:18:03;;;;;;;11.35;7.45;;;12.70;85.70;;;;;;6253764;22;20046;-91
2023/05/04 00:20:28;;;;;;;12.32;6.78;;;12.70;85.70;;;;;;6227965;22;20011;-91
2023/05/04 00:22:54;;;;;;;12.38;7.30;;;12.70;86.20;;;;;;6203047;22;20008;-93
2023/05/04 00:25:20;;;;;;;12.15;7.55;;;12.60;86.10;;;;;;6228626;22;20064;-95
2023/05/04 00:27:45;;;;;;;11.60;7.30;;;12.60;86.80;;;;;;6202795;22;20011;-88
2023/05/04 00:30:11;;;;;;;10.77;7.00;;;12.50;86.50;;;;;;6253828;22;20415;-89
2023/05/04 00:32:37;;;;;;;10.95;7.30;;;12.50;86.40;;;;;;6203045;22;20007;-90
2023/05/04 00:35:03;;;;;;;11.77;6.95;;;12.40;86.60;;;;;;6203708;22;20008;-89
2023/05/04 00:37:28;;;;;;;16.75;7.80;;;12.40;86.70;;;;;;6205063;22;20035;-89
2023/05/04 00:39:54;;;;;;;11.45;7.25;;;12.40;87.70;;;;;;6202858;22;20011;-89
2023/05/04 00:42:20;;;;;;;12.35;7.25;;;12.40;87.80;;;;;;6203973;22;20011;-90
2023/05/04 00:44:45;;;;;;;9.45;6.90;;;12.30;88.30;;;;;;6216804;22;20026;-92
2023/05/04 00:47:12;;;;;;;10.98;7.03;;;12.30;88.10;;;;;;6227913;22;20030;-91
2023/05/04 00:49:38;;;;;;;10.80;7.63;;;12.30;89.50;;;;;;6253186;22;20076;-92
2023/05/04 00:52:05;;;;;;;11.25;6.85;;;12.30;89.20;;;;;;6253557;22;20000;-91
2023/05/04 00:54:31;;;;;;;11.93;7.13;;;12.20;89.20;;;;;;6253519;22;20015;-92
2023/05/04 00:56:57;;;;;;;9.73;7.00;;;12.20;89.10;;;;;;6278527;22;20049;-92
2023/05/04 00:59:22;;;;;;;9.13;6.53;;;12.10;89.40;;;;;;6252816;22;20011;-92
2023/05/04 01:01:48;;;;;;;13.00;7.13;;;12.10;89.50;;;;;;6227271;22;20012;-90
2023/05/04 01:04:15;;;;;;;11.13;7.28;;;12.10;89.70;;;;;;6227693;22;20012;-91
2023/05/04 01:06:43;;;;;;;12.50;8.25;;;12.10;90.00;;;;;;6278305;22;20375;-90
2023/05/04 01:09:24;;;;;;;11.65;7.80;;;12.00;90.00;;;;;;6278128;22;20545;-91
2023/05/04 01:11:57;;;;;;;13.23;7.57;;;12.00;90.30;;;;;;6278352;22;19999;-94
2023/05/04 01:14:24;;;;;;;12.35;7.25;;;11.90;90.30;;;;;;6279178;22;20011;-94
2023/05/04 01:16:54;;;;;;;10.68;7.43;;;11.90;90.30;;;;;;6278808;22;20000;-94
2023/05/04 01:19:20;;;;;;;10.82;7.38;;;11.90;90.80;;;;;;6252961;22;20058;-94
2023/05/04 01:21:46;;;;;;;13.80;8.77;;;11.90;90.90;;;;;;6228141;22;20011;-94
2023/05/04 01:24:12;;;;;;;10.13;7.13;;;11.80;91.10;;;;;;6227593;22;20095;-94
2023/05/04 01:26:40;;;;;;;9.82;7.07;;;11.80;91.10;;;;;;6278716;22;20006;-94
2023/05/04 01:29:24;;;;;;;12.15;7.50;;;11.80;90.80;;;;;;6295802;22;20000;-90
2023/05/04 01:31:51;;;;;;;8.82;6.97;;;11.70;90.90;;;;;;6295570;22;19996;-92
2023/05/04 01:34:17;;;;;;;10.23;7.45;;;11.70;91.30;;;;;;6257229;22;19999;-92
2023/05/04 01:36:44;;;;;;;9.82;6.72;;;11.70;91.40;;;;;;6253533;22;20300;-91
2023/05/04 01:39:10;;;;;;;13.45;7.72;;;11.60;91.30;;;;;;6277909;22;20069;-91
2023/05/04 01:41:36;;;;;;;10.40;7.05;;;11.60;91.60;;;;;;6252788;22;20430;-91
2023/05/04 01:44:03;;;;;;;10.73;7.22;;;11.60;91.60;;;;;;6282084;22;20465;-91
2023/05/04 01:46:29;;;;;;;11.30;7.38;;;11.50;91.80;;;;;;6268121;22;20016;-91
2023/05/04 01:48:55;;;;;;;10.88;7.53;;;11.50;92.00;;;;;;6255962;22;20008;-90
2023/05/04 01:51:20;;;;;;;10.27;7.30;;;11.50;92.40;;;;;;6202542;22;20008;-91
2023/05/04 01:53:46;;;;;;;12.18;7.50;;;11.50;92.40;;;;;;6227431;22;20000;-91
2023/05/04 01:56:12;;;;;;;12.55;7.28;;;11.40;92.50;;;;;;6252210;22;20431;-90
2023/05/04 01:58:37;;;;;;;10.52;6.97;;;11.40;92.60;;;;;;6252367;22;20024;-91
2023/05/04 02:01:03;;;;;;;10.93;7.30;;;11.40;93.00;;;;;;6212140;22;20004;-88
2023/05/04 02:03:30;;;;;;;14.43;7.78;;;11.40;93.20;;;;;;6235410;22;20015;-89
2023/05/04 02:05:55;;;;;;;10.05;7.72;;;11.40;93.40;;;;;;6207018;22;20071;-90
2023/05/04 02:08:21;;;;;;;12.43;8.23;;;11.40;93.40;;;;;;6202344;22;20042;-94
2023/05/04 02:10:47;;;;;;;12.45;7.57;;;11.30;93.30;;;;;;6227584;22;20086;-93
2023/05/04 02:13:13;;;;;;;12.88;7.55;;;11.30;93.70;;;;;;6252909;22;20091;-94
2023/05/04 02:15:40;;;;;;;11.18;7.38;;;11.30;93.80;;;;;;6252845;22;20496;-94
2023/05/04 02:18:06;;;;;;;10.90;6.72;;;11.30;93.80;;;;;;6227758;22;20025;-94
2023/05/04 02:20:31;;;;;;;11.35;7.57;;;11.30;94.00;;;;;;6227640;22;20011;-93
2023/05/04 02:22:57;;;;;;;11.35;7.40;;;11.20;94.30;;;;;;6226925;22;20057;-88
2023/05/04 02:25:23;;;;;;;13.27;7.07;;;11.20;94.20;;;;;;6200813;22;20004;-88
2023/05/04 02:27:48;;;;;;;12.75;7.80;;;11.20;94.40;;;;;;6226157;22;20007;-89
2023/05/04 02:30:15;;;;;;;12.93;7.38;;;11.20;94.50;;;;;;6201243;22;20019;-88
2023/05/04 02:32:40;;;;;;;11.00;7.20;;;11.10;94.60;;;;;;6226410;22;20423;-89
2023/05/04 02:35:07;;;;;;;14.30;7.13;;;11.10;94.70;;;;;;6201760;22;20087;-90
2023/05/04 02:37:33;;;;;;;8.45;6.88;;;11.10;94.90;;;;;;6226560;22;20042;-92
2023/05/04 02:39:59;;;;;;;13.98;7.55;;;11.10;95.00;;;;;;6229567;22;20008;-93
2023/05/04 02:42:24;;;;;;;11.93;6.95;;;11.00;95.10;;;;;;6227193;22;20008;-93
2023/05/04 02:44:50;;;;;;;13.82;6.75;;;11.00;95.30;;;;;;6226524;22;20094;-92
2023/05/04 02:47:16;;;;;;;10.20;7.13;;;11.00;95.40;;;;;;6221628;22;20030;-91
2023/05/04 02:49:42;;;;;;;11.95;7.80;;;11.00;95.40;;;;;;6251691;22;20087;-92
2023/05/04 02:52:08;;;;;;;12.13;7.05;;;11.00;95.60;;;;;;6226959;22;20004;-90
2023/05/04 02:54:34;;;;;;;11.82;6.97;;;11.00;95.90;;;;;;6251868;22;20007;-91
2023/05/04 02:57:00;;;;;;;12.88;8.25;;;10.90;96.00;;;;;;6254805;22;20004;-90
2023/05/04 02:59:25;;;;;;;10.45;7.35;;;10.90;96.00;;;;;;6229897;22;20004;-91
2023/05/04 03:01:51;;;;;;;13.43;7.43;;;10.90;96.10;;;;;;6230874;22;20047;-92
2023/05/04 03:04:17;;;;;;;11.90;7.35;;;10.90;96.00;;;;;;6255889;22;20029;-91
2023/05/04 03:06:42;;;;;;;11.68;7.60;;;10.90;96.00;;;;;;6281802;22;20434;-93
2023/05/04 03:09:08;;;;;;;13.63;6.93;;;10.80;96.40;;;;;;6231226;22;20092;-91
2023/05/04 03:11:34;;;;;;;10.38;7.85;;;10.80;96.10;;;;;;6232324;22;20053;-90
2023/05/04 03:14:00;;;;;;;13.70;7.00;;;10.70;96.40;;;;;;6251957;22;20004;-90
2023/05/04 03:16:25;;;;;;;17.15;7.93;;;10.70;96.60;;;;;;6226017;22;20004;-89
2023/05/04 03:18:51;;;;;;;14.52;7.40;;;10.70;96.80;;;;;;6226304;22;20035;-89
2023/05/04 03:21:17;;;;;;;9.57;7.55;;;10.70;96.80;;;;;;6226000;22;20331;-88
2023/05/04 03:23:42;;;;;;;10.70;7.10;;;10.60;96.90;;;;;;6225823;22;20003;-88
2023/05/04 03:26:08;;;;;;;10.90;7.20;;;10.60;97.30;;;;;;6251512;22;20406;-89
2023/05/04 03:28:34;;;;;;;9.98;7.18;;;10.60;97.00;;;;;;6251108;22;20015;-89
2023/05/04 03:31:00;;;;;;;10.40;7.53;;;10.50;97.00;;;;;;6225903;22;20007;-91
2023/05/04 03:33:25;;;;;;;14.73;7.80;;;10.50;97.50;;;;;;6251543;22;20008;-91
2023/05/04 03:35:51;;;;;;;11.13;7.68;;;10.60;97.70;;;;;;6225990;22;19999;-91
2023/05/04 03:38:17;;;;;;;13.98;8.40;;;10.50;97.80;;;;;;6250808;22;20008;-91
2023/05/04 03:40:43;;;;;;;12.85;7.80;;;10.50;97.70;;;;;;6251390;22;20008;-91
2023/05/04 03:43:09;;;;;;;12.77;7.90;;;10.50;98.20;;;;;;6251366;22;20011;-92
2023/05/04 03:45:35;;;;;;;11.30;7.65;;;10.50;98.20;;;;;;6225834;22;20167;-91
2023/05/04 03:48:00;;;;;;;12.48;7.80;;;10.40;98.50;;;;;;6226063;22;20007;-92
2023/05/04 03:50:26;;;;;;;13.15;7.80;;;10.40;98.50;;;;;;6203011;22;20014;-91
2023/05/04 03:52:52;;;;;;;16.23;8.27;;;10.40;98.90;;;;;;6204690;22;20058;-90
2023/05/04 03:55:18;;;;;;;11.45;7.07;;;10.40;98.70;;;;;;6230227;22;20431;-92
2023/05/04 03:57:43;;;;;;;10.95;7.75;;;10.40;98.60;;;;;;6228260;22;20000;-90
2023/05/04 04:00:10;;;;;;;16.13;8.43;;;10.30;98.70;;;;;;6203310;22;20008;-91
2023/05/04 04:02:36;;;;;;;12.25;7.57;;;10.30;98.90;;;;;;6253050;22;20089;-89
2023/05/04 04:05:02;;;;;;;13.85;8.65;;;10.30;99.40;;;;;;6227559;22;20373;-89
2023/05/04 04:07:27;;;;;;;11.23;7.68;;;10.30;99.50;;;;;;6252455;22;20008;-89
2023/05/04 04:09:53;;;;;;;21.75;8.23;;;10.20;99.40;;;;;;6202611;22;20014;-91
2023/05/04 04:12:19;;;;;;;11.45;8.05;;;10.20;99.40;;;;;;6228145;22;20000;-91
2023/05/04 04:14:47;;;;;;;12.05;8.45;;;10.20;99.60;;;;;;6253050;22;20004;-91
2023/05/04 04:17:13;;;;;;;12.25;8.20;;;10.10;99.80;;;;;;6227905;22;20137;-92
2023/05/04 04:19:38;;;;;;;11.35;7.82;;;10.10;99.80;;;;;;6253997;22;20427;-91
2023/05/04 04:22:04;;;;;;;11.48;8.10;;;10.10;99.90;;;;;;6203671;22;20027;-91
2023/05/04 04:24:31;;;;;;;11.63;7.85;;;10.10;99.90;;;;;;6230317;22;20007;-91
2023/05/04 04:26:56;;;;;;;10.65;8.10;;;10.10;99.90;;;;;;6203022;22;20086;-90
2023/05/04 04:29:22;;;;;;;16.45;8.73;;;10.10;99.90;;;;;;6227511;22;20435;-90
2023/05/04 04:31:48;;;;;;;11.45;8.90;;;10.10;99.90;;;;;;6227908;22;20011;-90
2023/05/04 04:34:13;;;;;;;12.82;8.00;;;10.10;99.90;;;;;;6227738;22;20308;-90
2023/05/04 04:36:39;;;;;;;13.95;8.60;;;10.10;99.90;;;;;;6203701;22;20500;-95
2023/05/04 04:39:05;;;;;;;16.80;8.45;;;10.10;99.90;;;;;;6203911;22;20000;-96
2023/05/04 04:41:31;;;;;;;14.18;8.25;;;10.00;99.90;;;;;;6204840;22;20012;-95
2023/05/04 04:44:07;;;;;;;21.60;8.18;;;10.00;99.90;;;;;;6228809;22;20031;-95
2023/05/04 04:46:33;;;;;;;13.45;8.60;;;10.00;99.90;;;;;;6268645;22;20020;-93
2023/05/04 04:48:58;;;;;;;12.25;8.45;;;10.00;99.90;;;;;;6285345;22;20004;-94
2023/05/04 04:51:27;;;;;;;13.30;8.73;;;10.00;99.90;;;;;;6259711;22;20015;-95
2023/05/04 04:53:53;;;;;;;14.60;8.27;;;10.00;99.90;;;;;;6229421;22;20438;-90
2023/05/04 04:56:18;;;;;;;13.98;8.50;;;10.00;99.90;;;;;;6252792;22;20027;-89
2023/05/04 04:58:46;;;;;;;13.30;8.82;;;10.00;99.90;;;;;;6227450;22;20308;-90
2023/05/04 05:01:16;;;;;;;11.70;8.25;;;10.00;99.90;;;;;;6253206;22;20010;-90
2023/05/04 05:03:43;;;;;;;16.97;9.37;;;10.00;99.90;;;;;;6254051;22;20095;-90
2023/05/04 05:06:10;;;;;;;12.05;9.10;;;10.00;99.90;;;;;;6278730;22;20008;-93
2023/05/04 05:08:36;;;;;;;12.35;8.90;;;10.00;99.90;;;;;;6253233;22;20062;-93
2023/05/04 05:11:02;;;;;;;14.13;9.00;;;10.00;99.90;;;;;;6252233;22;20003;-90
2023/05/04 05:13:31;;;;;;;11.15;8.55;;;10.10;99.90;;;;;;6252337;22;20091;-89
2023/05/04 05:15:57;;;;;;;16.33;10.07;;;10.10;99.90;;;;;;6270851;22;19999;-95
2023/05/04 05:18:23;;;;;;;14.25;9.52;;;10.10;99.90;;;;;;6270477;22;19995;-92
2023/05/04 05:20:49;;;;;;;11.50;8.45;;;10.10;99.90;;;;;;6243310;22;20028;-93
2023/05/04 05:23:15;;;;;;;16.25;9.38;;;10.10;99.90;;;;;;6272177;22;20011;-94
2023/05/04 05:25:42;;;;;;;11.73;9.10;;;10.10;99.90;;;;;;6278549;22;20027;-90
2023/05/04 05:28:09;;;;;;;14.82;9.50;;;10.10;99.90;;;;;;6281878;22;20083;-91
2023/05/04 05:30:34;;;;;;;12.10;8.75;;;10.10;99.90;;;;;;6253956;22;20497;-91
2023/05/04 05:33:01;;;;;;;12.95;9.07;;;10.10;99.90;;;;;;6254080;22;20007;-91
2023/05/04 05:35:26;;;;;;;12.32;9.18;;;10.20;99.90;;;;;;6228665;22;20424;-91
2023/05/04 05:37:55;;;;;;;13.30;9.18;;;10.20;99.90;;;;;;6253218;22;20003;-90
2023/05/04 05:40:21;;;;;;;11.80;8.48;;;10.20;99.90;;;;;;6252994;22;20335;-91
2023/05/04 05:42:59;;;;;;;11.07;9.30;;;10.20;99.90;;;;;;6254838;22;20007;-89
2023/05/04 05:45:25;;;;;;;13.85;8.10;;;10.20;99.90;;;;;;6259597;22;20320;-89
2023/05/04 05:47:50;;;;;;;13.70;8.98;;;10.20;99.90;;;;;;6256486;22;20073;-88
2023/05/04 05:50:25;;;;;;;12.85;8.55;;;10.30;99.90;;;;;;6202871;22;20016;-89
2023/05/04 05:52:51;;;;;;;14.05;8.95;;;10.30;99.90;;;;;;6205806;22;20004;-90
2023/05/04 05:55:17;;;;;;;13.32;8.88;;;10.30;99.90;;;;;;6254870;22;20000;-90
2023/05/04 05:57:45;;;;;;;12.07;8.98;;;10.30;99.90;;;;;;6260648;22;20000;-92
2023/05/04 06:00:15;;;;;;;13.15;8.60;;;10.30;99.90;;;;;;6231830;22;20014;-94
2023/05/04 06:02:41;;;;;;;14.10;8.02;;;10.30;99.90;;;;;;6236325;22;20012;-94
2023/05/04 06:05:25;;;;;;;14.25;8.48;;;10.30;99.90;;;;;;6263064;22;20423;-94
2023/05/04 06:07:54;;;;;;;12.32;8.68;;;10.40;99.90;;;;;;6266919;22;20015;-94
2023/05/04 06:10:19;;;;;;;11.50;8.63;;;10.40;99.90;;;;;;6222153;22;20061;-96
2023/05/04 06:12:48;;;;;;;13.68;8.82;;;10.40;99.90;;;;;;6269401;22;20000;-94
2023/05/04 06:15:14;;;;;;;11.25;8.13;;;10.40;99.90;;;;;;6239603;22;20003;-95
2023/05/04 06:17:40;;;;;;;13.82;8.48;;;10.40;99.90;;;;;;6256020;22;20074;-94
2023/05/04 06:20:07;;;;;;;14.30;7.65;;;10.40;99.90;;;;;;6254687;22;20003;-94
2023/05/04 06:22:32;;;;;;;13.65;7.80;;;10.40;99.90;;;;;;6230929;22;20014;-95
2023/05/04 06:24:58;;;;;;;15.65;9.35;;;10.40;99.90;;;;;;6229902;22;20098;-91
2023/05/04 06:27:24;;;;;;;14.27;8.40;;;10.50;99.90;;;;;;6202003;22;20026;-89
2023/05/04 06:29:51;;;;;;;11.13;7.82;;;10.50;99.90;;;;;;6227513;22;20418;-90
2023/05/04 06:32:16;;;;;;;15.10;8.57;;;10.50;99.90;;;;;;6227226;22;20000;-89
2023/05/04 06:34:42;;;;;;;12.50;7.75;;;10.60;99.90;;;;;;6227391;22;20000;-89
2023/05/04 06:37:08;;;;;;;11.30;7.45;;;10.60;99.90;;;;;;6227876;22;20450;-90
2023/05/04 06:39:40;;;;;;;11.95;7.95;;;10.70;99.90;;;;;;6253350;22;20378;-91
2023/05/04 06:42:05;;;;;;;10.80;8.43;;;10.70;99.90;;;;;;6228342;22;20012;-89
2023/05/04 06:44:36;;;;;;;11.30;8.23;;;10.80;99.90;;;;;;6228018;22;20018;-90
2023/05/04 06:47:02;;;;;;;11.48;8.38;;;10.80;99.90;;;;;;6263958;22;20037;-91
2023/05/04 06:49:30;;;;;;;13.25;8.43;;;10.90;99.90;;;;;;6252412;22;20391;-93
2023/05/04 06:51:57;;;;;;;12.73;8.10;;;10.90;99.90;;;;;;6253576;22;20023;-92
2023/05/04 06:54:23;;;;;;;11.68;9.15;;;11.00;99.90;;;;;;6253962;22;20004;-92
2023/05/04 06:56:50;;;;;;;12.88;7.95;;;11.00;99.90;;;;;;6227011;22;20008;-93
2023/05/04 06:59:19;;;;;;;12.88;9.23;;;11.10;99.90;;;;;;6277767;22;20007;-91
2023/05/04 07:01:47;;;;;;;11.27;8.30;;;11.10;99.90;;;;;;6276902;22;20027;-89
2023/05/04 07:04:20;;;;;;;12.70;8.40;;;11.20;99.90;;;;;;6251970;22;20091;-90
2023/05/04 07:06:46;;;;;;;11.90;8.55;;;11.20;99.90;;;;;;6277998;22;20004;-91
2023/05/04 07:09:11;;;;;;;12.45;8.23;;;11.30;99.90;;;;;;6227303;22;20014;-90
2023/05/04 07:11:37;;;;;;;13.65;9.02;;;11.30;99.90;;;;;;6278723;22;20087;-93
2023/05/04 07:14:03;;;;;;;12.50;8.30;;;11.40;99.90;;;;;;6230469;22;20004;-92
2023/05/04 07:16:28;;;;;;;14.77;9.18;;;11.40;99.90;;;;;;6234610;22;20080;-93
2023/05/04 07:18:54;;;;;;;13.15;8.40;;;11.40;99.90;;;;;;6231623;22;20430;-90
2023/05/04 07:21:20;;;;;;;12.63;8.50;;;11.50;99.90;;;;;;6226329;22;20007;-90
2023/05/04 07:23:46;;;;;;;11.25;8.20;;;11.50;99.90;;;;;;6253306;22;20015;-90
2023/05/04 07:26:11;;;;;;;10.52;8.15;;;11.60;99.90;;;;;;6229067;22;20003;-90
2023/05/04 07:28:37;;;;;;;14.85;8.75;;;11.60;99.90;;;;;;6228926;22;20011;-90
2023/05/04 07:31:03;;;;;;;15.50;8.85;;;11.70;99.90;;;;;;6229548;22;20008;-90
2023/05/04 07:33:29;;;;;;;12.32;8.57;;;11.70;99.90;;;;;;6229075;22;20095;-90
2023/05/04 07:35:59;;;;;;;13.55;8.65;;;11.80;99.90;;;;;;6254209;22;20083;-90
2023/05/04 07:38:28;;;;;;;11.45;8.43;;;11.80;99.90;;;;;;6254343;22;20369;-90
2023/05/04 07:40:54;;;;;;;14.27;8.57;;;11.90;99.90;;;;;;6230265;22;20067;-94
2023/05/04 07:43:21;;;;;;;14.38;8.50;;;12.00;99.90;;;;;;6281140;22;20012;-94
2023/05/04 07:45:47;;;;;;;12.73;8.00;;;12.00;99.90;;;;;;6280358;22;20449;-94
2023/05/04 07:48:13;;;;;;;12.68;7.95;;;12.10;99.90;;;;;;6255960;22;20435;-95
2023/05/04 07:50:39;;;;;;;11.20;7.75;;;12.20;99.90;;;;;;6230416;22;20022;-93
2023/05/04 07:53:05;;;;;;;9.75;7.80;;;12.20;99.90;;;;;;6255195;22;19999;-93
2023/05/04 07:55:31;;;;;;;12.10;8.43;;;12.30;99.90;;;;;;6229822;22;20058;-94
2023/05/04 07:57:56;;;;;;;13.05;8.25;;;12.40;99.90;;;;;;6253990;22;20000;-93
2023/05/04 08:00:22;;;;;;;10.35;8.25;;;12.40;99.90;;;;;;6254447;22;20030;-90
2023/05/04 08:02:48;;;;;;;12.65;7.45;;;12.50;99.90;;;;;;6230403;22;20327;-90
2023/05/04 08:05:14;;;;;;;14.32;8.20;;;12.60;99.90;;;;;;6205793;22;20011;-90
2023/05/04 08:07:40;;;;;;;10.32;7.70;;;12.70;99.90;;;;;;6228580;22;20035;-89
2023/05/04 08:10:06;;;;;;;11.68;7.65;;;12.70;99.90;;;;;;6228562;22;20003;-90
2023/05/04 08:12:32;;;;;;;11.38;8.27;;;12.80;99.90;;;;;;6205695;22;20067;-89
2023/05/04 08:14:58;;;;;;;12.07;7.43;;;12.90;99.90;;;;;;6221302;22;20391;-88
2023/05/04 08:17:24;;;;;;;11.48;8.10;;;13.00;99.90;;;;;;6224729;22;20003;-88
2023/05/04 08:19:49;;;;;;;10.10;7.65;;;13.00;99.90;;;;;;6249425;22;20063;-91
2023/05/04 08:22:15;;;;;;;12.27;6.97;;;13.10;99.90;;;;;;6222312;22;20011;-90
2023/05/04 08:24:41;;;;;;;13.23;6.53;;;13.20;99.90;;;;;;6216811;22;20003;-90
2023/05/04 08:27:07;;;;;;;10.00;7.38;;;13.30;99.90;;;;;;6215710;22;20018;-89
2023/05/04 08:29:32;;;;;;;11.43;7.50;;;13.40;99.90;;;;;;6230375;22;20014;-90
2023/05/04 08:31:58;;;;;;;12.38;7.65;;;13.50;99.90;;;;;;6229057;22;20091;-92
2023/05/04 08:34:25;;;;;;;10.23;8.00;;;13.50;99.90;;;;;;6208700;22;20000;-91
2023/05/04 08:36:51;;;;;;;12.10;7.47;;;13.60;99.90;;;;;;6235565;22;20087;-91
2023/05/04 08:39:18;;;;;;;13.02;7.72;;;13.70;99.90;;;;;;6230556;22;20000;-96
2023/05/04 08:41:45;;;;;;;10.18;7.22;;;13.80;99.90;;;;;;6229790;22;20000;-93
2023/05/04 08:44:10;;;;;;;9.07;6.97;;;13.90;99.90;;;;;;6228371;22;20450;-92
2023/05/04 08:46:39;;;;;;;11.13;7.35;;;13.90;99.90;;;;;;6234623;22;20019;-93
2023/05/04 08:49:06;;;;;;;11.50;6.68;;;14.00;99.90;;;;;;6281391;22;20034;-93
2023/05/04 08:51:36;;;;;;;10.10;7.18;;;14.10;99.90;;;;;;6254714;22;20035;-88
2023/05/04 08:54:05;;;;;;;11.45;7.38;;;14.20;99.90;;;;;;6253475;22;20446;-89
2023/05/04 08:56:31;;;;;;;10.93;6.32;;;14.30;99.90;;;;;;6278579;22;20000;-88
2023/05/04 08:59:00;;;;;;;8.63;6.45;;;14.40;99.90;;;;;;6252633;22;20015;-88
2023/05/04 09:01:27;;;;;;;11.15;6.80;;;14.40;99.90;;;;;;6253229;22;20061;-88
2023/05/04 09:03:53;;;;;;;12.15;6.60;;;14.50;99.90;;;;;;6252986;22;20431;-90
2023/05/04 09:06:19;;;;;;;9.15;6.53;;;14.60;99.90;;;;;;6252801;22;20072;-90
2023/05/04 09:08:45;;;;;;;9.15;6.18;;;14.70;99.90;;;;;;6252533;22;20149;-89
2023/05/04 09:11:10;;;;;;;11.80;6.90;;;14.70;99.90;;;;;;6227218;22;20049;-90
2023/05/04 09:13:37;;;;;;;9.70;6.63;;;14.80;99.90;;;;;;6253064;22;20386;-89
2023/05/04 09:16:03;;;;;;;8.73;6.50;;;14.90;99.90;;;;;;6280063;22;20062;-89
2023/05/04 09:18:39;;;;;;;9.88;5.93;;;15.00;99.90;;;;;;6253054;22;20011;-89
2023/05/04 09:21:05;;;;;;;10.10;6.25;;;15.00;99.90;;;;;;6279220;22;20007;-94
2023/05/04 09:23:32;;;;;;;11.63;6.90;;;15.20;99.90;;;;;;6279474;22;20007;-95
2023/05/04 09:25:57;;;;;;;11.35;6.60;;;15.20;99.90;;;;;;6254231;22;20049;-94
2023/05/04 09:28:37;;;;;;;10.85;6.93;;;15.30;99.90;;;;;;6228393;22;20016;-95
2023/05/04 09:31:04;;;;;;;10.93;6.30;;;15.40;99.90;;;;;;6253984;22;20027;-95
2023/05/04 09:33:30;;;;;;;10.20;6.35;;;15.50;99.90;;;;;;6278642;22;20006;-96
2023/05/04 09:35:59;;;;;;;9.05;6.03;;;15.50;99.90;;;;;;6229553;22;20034;-89
2023/05/04 09:38:26;;;;;;;8.02;6.53;;;15.60;99.90;;;;;;6285014;22;20054;-91
2023/05/04 09:40:52;;;;;;;8.88;6.63;;;15.70;99.90;;;;;;6279115;22;20003;-91
2023/05/04 09:43:18;;;;;;;9.57;7.05;;;15.80;99.90;;;;;;6278153;22;20071;-89
2023/05/04 09:45:45;;;;;;;10.27;6.75;;;15.80;99.90;;;;;;6226708;22;20075;-89
2023/05/04 09:48:18;;;;;;;12.77;6.50;;;15.90;99.90;;;;;;6277281;22;20019;-89
2023/05/04 09:50:56;;;;;;;11.88;6.43;;;16.00;99.90;;;;;;6277440;22;20000;-91
2023/05/04 09:53:26;;;;;;;14.38;6.40;;;16.00;99.90;;;;;;6277832;22;20026;-93
2023/05/04 09:55:58;;;;;;;11.93;6.38;;;16.10;99.90;;;;;;6252961;22;20010;-93
2023/05/04 09:58:24;;;;;;;11.48;6.53;;;16.20;99.90;;;;;;6277943;22;20086;-94
2023/05/04 10:00:52;;;;;;;10.50;6.18;;;16.30;99.90;;;;;;6278319;22;19999;-93
2023/05/04 10:03:20;;;;;;;10.65;6.05;;;16.40;99.90;;;;;;6295660;22;20011;-92
2023/05/04 10:05:47;;;;;;;11.70;6.15;;;16.50;99.90;;;;;;6299314;22;20007;-91
2023/05/04 10:08:13;;;;;;;8.82;6.20;;;16.50;99.90;;;;;;6297039;22;20033;-91
2023/05/04 10:10:39;;;;;;;9.40;6.00;;;16.60;99.90;;;;;;6257173;22;20084;-93
2023/05/04 10:13:05;;;;;;;12.75;6.40;;;16.70;99.90;;;;;;6252886;22;20031;-94
2023/05/04 10:15:32;;;;;;;11.82;5.63;;;16.70;99.90;;;;;;6277986;22;20418;-95
2023/05/04 10:18:00;;;;;;;13.07;6.35;;;16.80;99.90;;;;;;6228496;22;20007;-94
2023/05/04 10:20:40;;;;;;;8.30;5.78;;;16.90;99.90;;;;;;6279405;22;20058;-94
2023/05/04 10:23:43;;;;;;;11.77;6.47;;;17.00;99.90;;;;;;6286091;22;20034;-94
2023/05/04 10:26:24;;;;;;;7.90;5.47;;;17.10;99.80;;;;;;6286138;22;20396;-95
2023/05/04 10:29:04;;;;;;;8.20;5.30;;;17.20;99.70;;;;;;6277816;22;20008;-93
2023/05/04 10:31:42;;;;;;;10.68;5.55;;;17.40;99.40;;;;;;6278304;22;20007;-92
2023/05/04 10:34:08;;;;;;;7.72;5.38;;;17.40;99.10;;;;;;6277849;22;20053;-91
2023/05/04 10:36:36;;;;;;;8.57;5.00;;;17.50;98.90;;;;;;6277522;22;19999;-90
2023/05/04 10:39:03;;;;;;;10.70;6.00;;;17.60;98.70;;;;;;6277698;22;20128;-91
2023/05/04 10:41:29;;;;;;;9.32;5.93;;;17.70;98.10;;;;;;6252918;22;20048;-90
2023/05/04 10:44:05;;;;;;;9.45;5.68;;;17.80;97.60;;;;;;6252654;22;20004;-91
2023/05/04 10:46:30;;;;;;;9.35;5.45;;;17.90;96.80;;;;;;6278420;22;20066;-93
2023/05/04 10:48:56;;;;;;;9.18;5.15;;;18.10;96.80;;;;;;6279112;22;20007;-93
2023/05/04 10:51:24;;;;;;;8.75;5.38;;;18.20;96.90;;;;;;6256951;22;20012;-92
2023/05/04 10:53:50;;;;;;;9.82;4.93;;;18.30;96.70;;;;;;6282067;22;20057;-92
2023/05/04 10:56:27;;;;;;;9.50;5.47;;;18.40;95.70;;;;;;6291944;22;20004;-93
2023/05/04 10:58:53;;;;;;;8.18;4.78;;;18.50;95.10;;;;;;6270595;22;20004;-93
2023/05/04 11:01:20;;;;;;;9.25;4.88;;;18.70;94.80;;;;;;6281950;22;20062;-92
2023/05/04 11:03:50;;;;;;;9.40;5.10;;;18.80;94.30;;;;;;6255491;22;20110;-95
2023/05/04 11:06:22;;;;;;;12.85;5.75;;;18.90;94.10;;;;;;6257990;22;20004;-93
2023/05/04 11:08:58;;;;;;;9.88;5.43;;;19.00;93.20;;;;;;6280759;22;20003;-94
2023/05/04 11:11:24;;;;;;;18.27;6.00;;;19.10;92.30;;;;;;6280827;22;20004;-94
2023/05/04 11:13:51;;;;;;;9.43;5.18;;;19.20;92.00;;;;;;6254755;22;20012;-95
2023/05/04 11:16:26;;;;;;;8.88;5.05;;;19.40;91.40;;;;;;6257471;22;20054;-91
2023/05/04 11:18:53;;;;;;;10.75;5.88;;;19.50;91.30;;;;;;6291020;22;20003;-92
2023/05/04 11:21:28;;;;;;;12.30;6.03;;;19.60;90.90;;;;;;6268321;22;20008;-91
2023/05/04 11:23:55;;;;;;;11.57;5.65;;;19.60;89.90;;;;;;6256851;22;20431;-92
2023/05/04 11:26:21;;;;;;;10.73;5.28;;;19.80;88.60;;;;;;6254382;22;20033;-91
2023/05/04 11:28:47;;;;;;;8.98;5.63;;;19.90;87.10;;;;;;6253626;22;20015;-90
2023/05/04 11:31:19;;;;;;;14.35;5.53;;;20.00;86.50;;;;;;6253348;22;20040;-90
2023/05/04 11:33:46;;;;;;;11.52;6.07;;;20.10;86.20;;;;;;6279318;22;20054;-93
2023/05/04 11:36:12;;;;;;;10.07;5.90;;;20.10;84.90;;;;;;6255260;22;20014;-95
2023/05/04 11:38:38;;;;;;;9.90;6.18;;;20.20;83.60;;;;;;6254651;22;20000;-91
2023/05/04 11:41:04;;;;;;;9.82;6.18;;;20.30;82.60;;;;;;6282305;22;20004;-93
2023/05/04 11:43:32;;;;;;;11.63;6.20;;;20.40;82.80;;;;;;6260518;22;20091;-94
2023/05/04 11:45:59;;;;;;;11.90;6.28;;;20.50;81.20;;;;;;6258763;22;20011;-94
2023/05/04 11:48:26;;;;;;;9.52;5.88;;;20.60;81.40;;;;;;6207816;22;20016;-95
2023/05/04 11:50:54;;;;;;;10.10;5.72;;;20.70;82.20;;;;;;6204721;22;20003;-93
2023/05/04 11:53:22;;;;;;;9.57;5.20;;;20.80;80.40;;;;;;6228911;22;20038;-93
2023/05/04 11:55:48;;;;;;;9.70;5.72;;;20.80;80.90;;;;;;6229913;22;20008;-96
2023/05/04 11:58:14;;;;;;;13.02;6.65;;;20.90;81.00;;;;;;6228811;22;20390;-94
2023/05/04 12:00:44;;;;;;;10.80;6.68;;;20.90;77.80;;;;;;6256709;22;20012;-94
2023/05/04 12:03:26;;;;;;;11.13;6.32;;;21.00;78.60;;;;;;6240427;22;19995;-92
2023/05/04 12:05:54;;;;;;;14.05;6.82;;;21.10;78.00;;;;;;6259178;22;20005;-92
2023/05/04 12:08:40;;;;;;;9.77;6.53;;;21.20;76.10;;;;;;6240537;22;20015;-93
2023/05/04 12:11:15;;;;;;;9.45;6.30;;;21.30;74.60;;;;;;6244111;22;19991;-93
2023/05/04 12:13:42;;;;;;;9.10;6.38;;;21.40;75.00;;;;;;6271039;22;20000;-94
2023/05/04 12:16:18;;;;;;;11.50;6.78;;;21.40;75.20;;;;;;6268505;22;20050;-93
2023/05/04 12:18:45;;;;;;;14.82;6.68;;;21.50;73.50;;;;;;6245857;22;20431;-94
2023/05/04 12:21:16;;;;;;;8.98;5.70;;;21.60;74.30;;;;;;6231798;22;20485;-94
2023/05/04 12:23:42;;;;;;;;;;;21.60;74.80;;;;;;6260508;22;20055;-95
2023/05/04 12:26:08;;;;;;;11.10;5.93;;;21.70;75.20;;;;;;6255203;22;19906;-90
2023/05/04 12:28:35;;;;;;;11.30;6.75;;;21.70;73.70;;;;;;6228322;22;20004;-90
2023/05/04 12:31:03;;;;;;;10.30;6.78;;;21.80;73.30;;;;;;6254481;22;20019;-92
2023/05/04 12:33:29;;;;;;;9.25;6.28;;;21.90;72.00;;;;;;6254104;22;20007;-92
2023/05/04 12:35:55;;;;;;;12.95;6.68;;;21.90;71.60;;;;;;6254592;22;20030;-91
2023/05/04 12:38:21;;;;;;;11.93;6.82;;;22.00;68.40;;;;;;6257206;22;20004;-92